sensor_id;sensor_type;location;lat;lon;timestamp;pressure;altitude;pressure_sealevel;temperature
74942;BMP280;63506;49.346;8.798;2024-02-26T00:00:17;98276.31;;;5.82
74942;BMP280;63506;49.346;8.798;2024-02-26T00:03:02;98268.25;;;5.82
74942;BMP280;63506;49.346;8.798;2024-02-26T00:05:53;98275.13;;;5.79
74942;BMP280;63506;49.346;8.798;2024-02-26T00:08:40;98266.31;;;5.82
74942;BMP280;63506;49.346;8.798;2024-02-26T00:11:29;98272.06;;;5.81
74942;BMP280;63506;49.346;8.798;2024-02-26T00:14:13;98270.16;;;5.81
74942;BMP280;63506;49.346;8.798;2024-02-26T00:17:00;98272.03;;;5.77
74942;BMP280;63506;49.346;8.798;2024-02-26T00:19:47;98275.94;;;5.83
74942;BMP280;63506;49.346;8.798;2024-02-26T00:22:36;98268.19;;;5.75
74942;BMP280;63506;49.346;8.798;2024-02-26T00:25:20;98270.81;;;5.71
74942;BMP280;63506;49.346;8.798;2024-02-26T00:28:07;98272.34;;;5.68
74942;BMP280;63506;49.346;8.798;2024-02-26T00:30:53;98273.88;;;5.70
74942;BMP280;63506;49.346;8.798;2024-02-26T00:33:38;98282.72;;;5.70
74942;BMP280;63506;49.346;8.798;2024-02-26T00:36:27;98277.34;;;5.70
74942;BMP280;63506;49.346;8.798;2024-02-26T00:39:14;98270.03;;;5.67
74942;BMP280;63506;49.346;8.798;2024-02-26T00:42:00;98278.44;;;5.65
74942;BMP280;63506;49.346;8.798;2024-02-26T00:44:44;98279.59;;;5.64
74942;BMP280;63506;49.346;8.798;2024-02-26T00:47:31;98277.63;;;5.61
74942;BMP280;63506;49.346;8.798;2024-02-26T00:50:15;98268.84;;;5.64
74942;BMP280;63506;49.346;8.798;2024-02-26T00:53:04;98271.13;;;5.62
74942;BMP280;63506;49.346;8.798;2024-02-26T00:55:57;98271.88;;;5.59
74942;BMP280;63506;49.346;8.798;2024-02-26T00:58:41;98274.19;;;5.61
74942;BMP280;63506;49.346;8.798;2024-02-26T01:01:30;98274.56;;;5.59
74942;BMP280;63506;49.346;8.798;2024-02-26T01:04:17;98278.72;;;5.53
74942;BMP280;63506;49.346;8.798;2024-02-26T01:07:03;98276.50;;;5.62
74942;BMP280;63506;49.346;8.798;2024-02-26T01:09:50;98273.47;;;5.67
74942;BMP280;63506;49.346;8.798;2024-02-26T01:12:37;98278.03;;;5.63
74942;BMP280;63506;49.346;8.798;2024-02-26T01:15:23;98276.13;;;5.64
74942;BMP280;63506;49.346;8.798;2024-02-26T01:18:08;98286.50;;;5.65
74942;BMP280;63506;49.346;8.798;2024-02-26T01:20:52;98290.34;;;5.64
74942;BMP280;63506;49.346;8.798;2024-02-26T01:23:39;98294.19;;;5.67
74942;BMP280;63506;49.346;8.798;2024-02-26T01:26:28;98290.66;;;5.59
74942;BMP280;63506;49.346;8.798;2024-02-26T01:29:15;98308.09;;;5.73
74942;BMP280;63506;49.346;8.798;2024-02-26T01:31:59;98302.66;;;5.69
74942;BMP280;63506;49.346;8.798;2024-02-26T01:34:47;98303.06;;;5.71
74942;BMP280;63506;49.346;8.798;2024-02-26T01:37:34;98306.19;;;5.77
74942;BMP280;63506;49.346;8.798;2024-02-26T01:40:26;98304.72;;;5.83
74942;BMP280;63506;49.346;8.798;2024-02-26T01:43:13;98304.72;;;5.83
74942;BMP280;63506;49.346;8.798;2024-02-26T01:46:05;98304.72;;;5.83
74942;BMP280;63506;49.346;8.798;2024-02-26T01:48:50;98295.44;;;5.77
74942;BMP280;63506;49.346;8.798;2024-02-26T01:51:35;98306.97;;;5.77
74942;BMP280;63506;49.346;8.798;2024-02-26T01:54:22;98312.09;;;5.93
74942;BMP280;63506;49.346;8.798;2024-02-26T01:57:07;98307.41;;;5.83
74942;BMP280;63506;49.346;8.798;2024-02-26T01:59:52;98320.56;;;5.95
74942;BMP280;63506;49.346;8.798;2024-02-26T02:02:39;98337.94;;;6.08
74942;BMP280;63506;49.346;8.798;2024-02-26T02:05:26;98322.94;;;6.04
74942;BMP280;63506;49.346;8.798;2024-02-26T02:08:13;98336.56;;;6.25
74942;BMP280;63506;49.346;8.798;2024-02-26T02:11:02;98310.31;;;6.08
74942;BMP280;63506;49.346;8.798;2024-02-26T02:13:47;98315.72;;;6.11
74942;BMP280;63506;49.346;8.798;2024-02-26T02:16:31;98302.97;;;6.05
74942;BMP280;63506;49.346;8.798;2024-02-26T02:19:18;98298.69;;;5.96
74942;BMP280;63506;49.346;8.798;2024-02-26T02:22:07;98316.03;;;6.03
74942;BMP280;63506;49.346;8.798;2024-02-26T02:24:54;98307.97;;;6.06
74942;BMP280;63506;49.346;8.798;2024-02-26T02:27:39;98313.72;;;6.05
74942;BMP280;63506;49.346;8.798;2024-02-26T02:30:28;98309.09;;;6.02
74942;BMP280;63506;49.346;8.798;2024-02-26T02:33:15;98314.97;;;6.14
74942;BMP280;63506;49.346;8.798;2024-02-26T02:35:59;98308.09;;;6.17
74942;BMP280;63506;49.346;8.798;2024-02-26T02:38:51;98305.28;;;6.03
74942;BMP280;63506;49.346;8.798;2024-02-26T02:41:41;98305.97;;;5.96
74942;BMP280;63506;49.346;8.798;2024-02-26T02:44:27;98304.44;;;5.95
74942;BMP280;63506;49.346;8.798;2024-02-26T02:47:14;98309.78;;;5.91
74942;BMP280;63506;49.346;8.798;2024-02-26T02:49:58;98315.97;;;5.95
74942;BMP280;63506;49.346;8.798;2024-02-26T02:52:45;98309.44;;;5.96
74942;BMP280;63506;49.346;8.798;2024-02-26T02:55:33;98317.88;;;5.95
74942;BMP280;63506;49.346;8.798;2024-02-26T02:58:18;98320.31;;;6.11
74942;BMP280;63506;49.346;8.798;2024-02-26T03:01:04;98319.06;;;6.01
74942;BMP280;63506;49.346;8.798;2024-02-26T03:03:51;98327.84;;;5.94
74942;BMP280;63506;49.346;8.798;2024-02-26T03:06:35;98320.97;;;5.97
74942;BMP280;63506;49.346;8.798;2024-02-26T03:09:21;98334.72;;;5.92
74942;BMP280;63506;49.346;8.798;2024-02-26T03:12:09;98331.28;;;5.91
74942;BMP280;63506;49.346;8.798;2024-02-26T03:14:53;98330.91;;;5.93
74942;BMP280;63506;49.346;8.798;2024-02-26T03:17:40;98334.75;;;5.95
74942;BMP280;63506;49.346;8.798;2024-02-26T03:20:24;98330.91;;;5.93
74942;BMP280;63506;49.346;8.798;2024-02-26T03:23:11;98324.03;;;5.95
74942;BMP280;63506;49.346;8.798;2024-02-26T03:25:58;98322.38;;;5.84
74942;BMP280;63506;49.346;8.798;2024-02-26T03:28:45;98332.00;;;5.88
74942;BMP280;63506;49.346;8.798;2024-02-26T03:31:29;98339.25;;;5.84
74942;BMP280;63506;49.346;8.798;2024-02-26T03:34:15;98343.94;;;5.91
74942;BMP280;63506;49.346;8.798;2024-02-26T03:37:03;98331.97;;;5.85
74942;BMP280;63506;49.346;8.798;2024-02-26T03:39:51;98338.16;;;5.89
74942;BMP280;63506;49.346;8.798;2024-02-26T03:42:37;98336.97;;;5.86
74942;BMP280;63506;49.346;8.798;2024-02-26T03:45:26;98339.66;;;5.86
74942;BMP280;63506;49.346;8.798;2024-02-26T03:48:17;98344.63;;;5.84
74942;BMP280;63506;49.346;8.798;2024-02-26T03:51:08;98341.97;;;5.88
74942;BMP280;63506;49.346;8.798;2024-02-26T03:53:55;98340.03;;;5.85
74942;BMP280;63506;49.346;8.798;2024-02-26T03:56:41;98333.50;;;5.82
74942;BMP280;63506;49.346;8.798;2024-02-26T03:59:26;98331.13;;;5.77
74942;BMP280;63506;49.346;8.798;2024-02-26T04:02:16;98323.88;;;5.81
74942;BMP280;63506;49.346;8.798;2024-02-26T04:05:04;98330.03;;;5.82
74942;BMP280;63506;49.346;8.798;2024-02-26T04:07:56;98313.88;;;5.78
74942;BMP280;63506;49.346;8.798;2024-02-26T04:10:41;98325.34;;;5.75
74942;BMP280;63506;49.346;8.798;2024-02-26T04:13:27;98315.00;;;5.74
74942;BMP280;63506;49.346;8.798;2024-02-26T04:16:16;98312.31;;;5.74
74942;BMP280;63506;49.346;8.798;2024-02-26T04:19:05;98321.53;;;5.76
74942;BMP280;63506;49.346;8.798;2024-02-26T04:21:50;98310.41;;;5.78
74942;BMP280;63506;49.346;8.798;2024-02-26T04:24:39;98317.00;;;5.84
74942;BMP280;63506;49.346;8.798;2024-02-26T04:27:24;98307.81;;;5.85
74942;BMP280;63506;49.346;8.798;2024-02-26T04:30:09;98305.84;;;5.82
74942;BMP280;63506;49.346;8.798;2024-02-26T04:32:58;98305.06;;;5.81
74942;BMP280;63506;49.346;8.798;2024-02-26T04:35:45;98304.69;;;5.79
74942;BMP280;63506;49.346;8.798;2024-02-26T04:38:31;98298.25;;;5.91
74942;BMP280;63506;49.346;8.798;2024-02-26T04:41:15;98302.53;;;5.95
74942;BMP280;63506;49.346;8.798;2024-02-26T04:44:02;98302.53;;;5.95
74942;BMP280;63506;49.346;8.798;2024-02-26T04:46:49;98296.41;;;5.98
74942;BMP280;63506;49.346;8.798;2024-02-26T04:49:33;98302.59;;;6.03
74942;BMP280;63506;49.346;8.798;2024-02-26T04:52:22;98299.47;;;5.97
74942;BMP280;63506;49.346;8.798;2024-02-26T04:55:07;98300.59;;;5.96
74942;BMP280;63506;49.346;8.798;2024-02-26T04:57:54;98302.19;;;6.00
74942;BMP280;63506;49.346;8.798;2024-02-26T05:00:39;98302.59;;;6.03
74942;BMP280;63506;49.346;8.798;2024-02-26T05:03:27;98308.69;;;5.99
74942;BMP280;63506;49.346;8.798;2024-02-26T05:06:14;98299.50;;;6.00
74942;BMP280;63506;49.346;8.798;2024-02-26T05:09:03;98313.66;;;5.97
74942;BMP280;63506;49.346;8.798;2024-02-26T05:11:50;98307.50;;;5.93
74942;BMP280;63506;49.346;8.798;2024-02-26T05:14:37;98305.56;;;5.94
74942;BMP280;63506;49.346;8.798;2024-02-26T05:17:23;98316.69;;;5.92
74942;BMP280;63506;49.346;8.798;2024-02-26T05:20:10;98312.13;;;5.96
74942;BMP280;63506;49.346;8.798;2024-02-26T05:23:00;98313.34;;;6.06
74942;BMP280;63506;49.346;8.798;2024-02-26T05:25:51;98315.63;;;6.04
74942;BMP280;63506;49.346;8.798;2024-02-26T05:28:35;98317.56;;;6.04
74942;BMP280;63506;49.346;8.798;2024-02-26T05:31:23;98321.78;;;6.01
74942;BMP280;63506;49.346;8.798;2024-02-26T05:34:10;98317.53;;;6.00
74942;BMP280;63506;49.346;8.798;2024-02-26T05:36:59;98320.63;;;6.02
74942;BMP280;63506;49.346;8.798;2024-02-26T05:39:46;98322.53;;;6.02
74942;BMP280;63506;49.346;8.798;2024-02-26T05:42:35;98308.34;;;6.01
74942;BMP280;63506;49.346;8.798;2024-02-26T05:45:19;98305.19;;;5.92
74942;BMP280;63506;49.346;8.798;2024-02-26T05:48:04;98316.69;;;5.92
74942;BMP280;63506;49.346;8.798;2024-02-26T05:50:49;98322.13;;;5.99
74942;BMP280;63506;49.346;8.798;2024-02-26T05:53:33;98320.97;;;5.97
74942;BMP280;63506;49.346;8.798;2024-02-26T05:56:20;98328.69;;;6.02
74942;BMP280;63506;49.346;8.798;2024-02-26T05:59:07;98326.09;;;6.13
74942;BMP280;63506;49.346;8.798;2024-02-26T06:01:54;98335.28;;;6.08
74942;BMP280;63506;49.346;8.798;2024-02-26T06:04:38;98339.50;;;6.09
74942;BMP280;63506;49.346;8.798;2024-02-26T06:07:25;98354.47;;;6.10
74942;BMP280;63506;49.346;8.798;2024-02-26T06:10:14;98355.25;;;6.11
74942;BMP280;63506;49.346;8.798;2024-02-26T06:13:07;98356.09;;;6.22
74942;BMP280;63506;49.346;8.798;2024-02-26T06:15:56;98362.22;;;6.15
74942;BMP280;63506;49.346;8.798;2024-02-26T06:18:40;98372.19;;;6.15
74942;BMP280;63506;49.346;8.798;2024-02-26T06:21:27;98371.00;;;6.12
74942;BMP280;63506;49.346;8.798;2024-02-26T06:24:12;98374.38;;;6.02
74942;BMP280;63506;49.346;8.798;2024-02-26T06:26:56;98386.25;;;6.01
74942;BMP280;63506;49.346;8.798;2024-02-26T06:29:40;98403.94;;;6.02
74942;BMP280;63506;49.346;8.798;2024-02-26T06:32:33;98397.00;;;6.01
74942;BMP280;63506;49.346;8.798;2024-02-26T06:35:22;98399.69;;;6.01
74942;BMP280;63506;49.346;8.798;2024-02-26T06:38:06;98402.00;;;6.03
74942;BMP280;63506;49.346;8.798;2024-02-26T06:40:55;98407.00;;;6.04
74942;BMP280;63506;49.346;8.798;2024-02-26T06:43:42;98401.69;;;6.08
74942;BMP280;63506;49.346;8.798;2024-02-26T06:46:28;98407.00;;;6.04
74942;BMP280;63506;49.346;8.798;2024-02-26T06:49:18;98409.41;;;6.13
74942;BMP280;63506;49.346;8.798;2024-02-26T06:52:05;98407.22;;;6.25
74942;BMP280;63506;49.346;8.798;2024-02-26T06:54:51;98411.50;;;6.33
74942;BMP280;63506;49.346;8.798;2024-02-26T06:57:39;98410.03;;;6.40
74942;BMP280;63506;49.346;8.798;2024-02-26T07:00:23;98415.75;;;6.31
74942;BMP280;63506;49.346;8.798;2024-02-26T07:03:10;98423.03;;;6.30
74942;BMP280;63506;49.346;8.798;2024-02-26T07:06:00;98423.81;;;6.31
74942;BMP280;63506;49.346;8.798;2024-02-26T07:08:46;98426.53;;;6.38
74942;BMP280;63506;49.346;8.798;2024-02-26T07:11:35;98434.66;;;6.42
74942;BMP280;63506;49.346;8.798;2024-02-26T07:14:20;98439.19;;;6.38
74942;BMP280;63506;49.346;8.798;2024-02-26T07:17:08;98431.59;;;6.47
74942;BMP280;63506;49.346;8.798;2024-02-26T07:19:53;98441.59;;;6.46
74942;BMP280;63506;49.346;8.798;2024-02-26T07:22:42;98434.69;;;6.45
74942;BMP280;63506;49.346;8.798;2024-02-26T07:25:27;98440.44;;;6.47
74942;BMP280;63506;49.346;8.798;2024-02-26T07:28:13;98441.28;;;6.55
74942;BMP280;63506;49.346;8.798;2024-02-26T07:31:00;98442.50;;;6.61
74942;BMP280;63506;49.346;8.798;2024-02-26T07:33:45;98439.44;;;6.62
74942;BMP280;63506;49.346;8.798;2024-02-26T07:36:34;98442.94;;;6.74
74942;BMP280;63506;49.346;8.798;2024-02-26T07:39:26;98435.66;;;6.71
74942;BMP280;63506;49.346;8.798;2024-02-26T07:42:10;98437.94;;;6.72
74942;BMP280;63506;49.346;8.798;2024-02-26T07:44:57;98439.19;;;6.82
74942;BMP280;63506;49.346;8.798;2024-02-26T07:47:41;98442.28;;;6.87
74942;BMP280;63506;49.346;8.798;2024-02-26T07:50:26;98447.84;;;7.09
74942;BMP280;63506;49.346;8.798;2024-02-26T07:53:13;98442.41;;;7.05
74942;BMP280;63506;49.346;8.798;2024-02-26T07:56:00;98452.00;;;7.03
74942;BMP280;63506;49.346;8.798;2024-02-26T07:58:49;98446.72;;;7.13
74942;BMP280;63506;49.346;8.798;2024-02-26T08:01:36;98446.34;;;7.15
74942;BMP280;63506;49.346;8.798;2024-02-26T08:04:20;98444.44;;;7.22
74942;BMP280;63506;49.346;8.798;2024-02-26T08:07:05;98447.66;;;7.49
74942;BMP280;63506;49.346;8.798;2024-02-26T08:09:52;98451.94;;;7.61
74942;BMP280;63506;49.346;8.798;2024-02-26T08:12:39;98456.59;;;7.75
74942;BMP280;63506;49.346;8.798;2024-02-26T08:15:25;98456.25;;;7.90
74942;BMP280;63506;49.346;8.798;2024-02-26T08:18:14;98458.59;;;7.95
74942;BMP280;63506;49.346;8.798;2024-02-26T08:20:58;98457.03;;;7.84
74942;BMP280;63506;49.346;8.798;2024-02-26T08:23:46;98463.59;;;7.93
74942;BMP280;63506;49.346;8.798;2024-02-26T08:26:33;98474.38;;;7.97
74942;BMP280;63506;49.346;8.798;2024-02-26T08:29:24;98471.00;;;8.18
74942;BMP280;63506;49.346;8.798;2024-02-26T08:32:11;98475.63;;;8.46
74942;BMP280;63506;49.346;8.798;2024-02-26T08:35:00;98480.25;;;8.84
74942;BMP280;63506;49.346;8.798;2024-02-26T08:37:44;98477.50;;;9.13
74942;BMP280;63506;49.346;8.798;2024-02-26T08:40:29;98468.63;;;9.23
74942;BMP280;63506;49.346;8.798;2024-02-26T08:43:16;98474.81;;;9.20
74942;BMP280;63506;49.346;8.798;2024-02-26T08:46:03;98472.94;;;8.74
74942;BMP280;63506;49.346;8.798;2024-02-26T08:48:49;98475.28;;;8.68
74942;BMP280;63506;49.346;8.798;2024-02-26T08:51:34;98474.13;;;8.69
74942;BMP280;63506;49.346;8.798;2024-02-26T08:54:22;98474.50;;;8.68
74942;BMP280;63506;49.346;8.798;2024-02-26T08:57:11;98483.75;;;8.71
74942;BMP280;63506;49.346;8.798;2024-02-26T08:59:56;98474.06;;;8.84
74942;BMP280;63506;49.346;8.798;2024-02-26T09:02:48;98475.25;;;8.90
74942;BMP280;63506;49.346;8.798;2024-02-26T09:05:35;98481.03;;;8.81
74942;BMP280;63506;49.346;8.798;2024-02-26T09:08:22;98489.91;;;8.78
74942;BMP280;63506;49.346;8.798;2024-02-26T09:11:06;98489.13;;;8.92
74942;BMP280;63506;49.346;8.798;2024-02-26T09:13:54;98496.41;;;9.23
74942;BMP280;63506;49.346;8.798;2024-02-26T09:16:42;98495.63;;;9.12
74942;BMP280;63506;49.346;8.798;2024-02-26T09:19:34;98493.78;;;8.88
74942;BMP280;63506;49.346;8.798;2024-02-26T09:22:19;98495.66;;;8.98
74942;BMP280;63506;49.346;8.798;2024-02-26T09:25:07;98493.00;;;8.80
74942;BMP280;63506;49.346;8.798;2024-02-26T09:27:54;98495.31;;;8.71
74942;BMP280;63506;49.346;8.798;2024-02-26T09:30:38;98501.09;;;8.55
74942;BMP280;63506;49.346;8.798;2024-02-26T09:33:22;98504.94;;;8.58
74942;BMP280;63506;49.346;8.798;2024-02-26T09:36:09;98507.66;;;8.83
74942;BMP280;63506;49.346;8.798;2024-02-26T09:38:56;98514.19;;;8.53
74942;BMP280;63506;49.346;8.798;2024-02-26T09:41:40;98513.78;;;8.65
74942;BMP280;63506;49.346;8.798;2024-02-26T09:44:25;98513.78;;;8.48
74942;BMP280;63506;49.346;8.798;2024-02-26T09:47:14;98513.00;;;8.44
74942;BMP280;63506;49.346;8.798;2024-02-26T09:50:01;98516.88;;;8.64
74942;BMP280;63506;49.346;8.798;2024-02-26T09:52:53;98523.84;;;8.83
74942;BMP280;63506;49.346;8.798;2024-02-26T09:55:38;98518.44;;;8.97
74942;BMP280;63506;49.346;8.798;2024-02-26T09:58:27;98527.31;;;9.08
74942;BMP280;63506;49.346;8.798;2024-02-26T10:01:16;98511.41;;;9.31
74942;BMP280;63506;49.346;8.798;2024-02-26T10:04:01;98516.06;;;9.31
74942;BMP280;63506;49.346;8.798;2024-02-26T10:06:50;98511.84;;;9.26
74942;BMP280;63506;49.346;8.798;2024-02-26T10:09:38;98523.41;;;9.37
74942;BMP280;63506;49.346;8.798;2024-02-26T10:12:26;98507.16;;;9.34
74942;BMP280;63506;49.346;8.798;2024-02-26T10:15:17;98504.03;;;9.57
74942;BMP280;63506;49.346;8.798;2024-02-26T10:18:04;98515.06;;;9.98
74942;BMP280;63506;49.346;8.798;2024-02-26T10:20:59;98507.72;;;10.54
74942;BMP280;63506;49.346;8.798;2024-02-26T10:23:44;98523.13;;;11.08
74942;BMP280;63506;49.346;8.798;2024-02-26T10:26:31;98524.34;;;10.56
74942;BMP280;63506;49.346;8.798;2024-02-26T10:29:21;98519.19;;;10.72
74942;BMP280;63506;49.346;8.798;2024-02-26T10:32:08;98519.59;;;11.15
74942;BMP280;63506;49.346;8.798;2024-02-26T10:34:57;98518.66;;;11.25
74942;BMP280;63506;49.346;8.798;2024-02-26T10:37:44;98522.34;;;11.08
74942;BMP280;63506;49.346;8.798;2024-02-26T10:40:30;98519.56;;;10.70
74942;BMP280;63506;49.346;8.798;2024-02-26T10:43:19;98519.44;;;10.36
74942;BMP280;63506;49.346;8.798;2024-02-26T10:46:07;98517.78;;;10.53
74942;BMP280;63506;49.346;8.798;2024-02-26T10:48:54;98506.88;;;10.64
74942;BMP280;63506;49.346;8.798;2024-02-26T10:51:44;98510.34;;;10.64
74942;BMP280;63506;49.346;8.798;2024-02-26T10:54:29;98507.06;;;10.87
74942;BMP280;63506;49.346;8.798;2024-02-26T10:57:15;98515.59;;;11.27
74942;BMP280;63506;49.346;8.798;2024-02-26T11:00:08;98526.81;;;11.90
74942;BMP280;63506;49.346;8.798;2024-02-26T11:02:56;98527.78;;;12.30
74942;BMP280;63506;49.346;8.798;2024-02-26T11:05:48;98526.59;;;12.57
74942;BMP280;63506;49.346;8.798;2024-02-26T11:08:35;98527.00;;;12.56
74942;BMP280;63506;49.346;8.798;2024-02-26T11:11:23;98541.13;;;12.47
74942;BMP280;63506;49.346;8.798;2024-02-26T11:14:09;98529.56;;;12.16
74942;BMP280;63506;49.346;8.798;2024-02-26T11:17:02;98533.25;;;12.03
74942;BMP280;63506;49.346;8.798;2024-02-26T11:19:50;98536.25;;;11.78
74942;BMP280;63506;49.346;8.798;2024-02-26T11:22:38;98535.78;;;11.86
74942;BMP280;63506;49.346;8.798;2024-02-26T11:25:25;98542.09;;;12.07
74942;BMP280;63506;49.346;8.798;2024-02-26T11:28:11;98530.00;;;12.11
74942;BMP280;63506;49.346;8.798;2024-02-26T11:30:57;98536.78;;;12.27
74942;BMP280;63506;49.346;8.798;2024-02-26T11:33:48;98540.78;;;12.42
74942;BMP280;63506;49.346;8.798;2024-02-26T11:36:37;98537.50;;;12.31
74942;BMP280;63506;49.346;8.798;2024-02-26T11:39:21;98526.94;;;12.36
74942;BMP280;63506;49.346;8.798;2024-02-26T11:42:09;98530.50;;;12.56
74942;BMP280;63506;49.346;8.798;2024-02-26T11:44:56;98523.38;;;12.63
74942;BMP280;63506;49.346;8.798;2024-02-26T11:47:41;98529.44;;;12.74
74942;BMP280;63506;49.346;8.798;2024-02-26T11:50:39;98534.28;;;12.86
74942;BMP280;63506;49.346;8.798;2024-02-26T11:53:25;98535.66;;;13.17
74942;BMP280;63506;49.346;8.798;2024-02-26T11:56:14;98540.41;;;13.53
74942;BMP280;63506;49.346;8.798;2024-02-26T11:59:03;98532.53;;;13.39
74942;BMP280;63506;49.346;8.798;2024-02-26T12:01:50;98526.31;;;13.18
74942;BMP280;63506;49.346;8.798;2024-02-26T12:04:37;98524.22;;;13.82
74942;BMP280;63506;49.346;8.798;2024-02-26T12:07:23;98536.22;;;14.04
74942;BMP280;63506;49.346;8.798;2024-02-26T12:10:23;98537.25;;;13.54
74942;BMP280;63506;49.346;8.798;2024-02-26T12:13:11;98531.47;;;13.32
74942;BMP280;63506;49.346;8.798;2024-02-26T12:15:58;98530.28;;;13.33
74942;BMP280;63506;49.346;8.798;2024-02-26T12:18:44;98526.31;;;13.18
74942;BMP280;63506;49.346;8.798;2024-02-26T12:21:29;98531.88;;;13.31
74942;BMP280;63506;49.346;8.798;2024-02-26T12:24:18;98544.81;;;13.83
74942;BMP280;63506;49.346;8.798;2024-02-26T12:27:04;98550.69;;;13.81
74942;BMP280;63506;49.346;8.798;2024-02-26T12:29:49;98554.19;;;13.62
74942;BMP280;63506;49.346;8.798;2024-02-26T12:32:33;98547.81;;;13.68
74942;BMP280;63506;49.346;8.798;2024-02-26T12:35:19;98546.06;;;13.98
74942;BMP280;63506;49.346;8.798;2024-02-26T12:38:06;98558.81;;;14.01
74942;BMP280;63506;49.346;8.798;2024-02-26T12:40:53;98561.47;;;14.04
74942;BMP280;63506;49.346;8.798;2024-02-26T12:43:37;98556.19;;;13.97
74942;BMP280;63506;49.346;8.798;2024-02-26T12:46:21;98554.97;;;13.98
74942;BMP280;63506;49.346;8.798;2024-02-26T12:49:15;98545.81;;;14.09
74942;BMP280;63506;49.346;8.798;2024-02-26T12:52:05;98556.53;;;13.80
74942;BMP280;63506;49.346;8.798;2024-02-26T12:55:00;98562.84;;;13.77
74942;BMP280;63506;49.346;8.798;2024-02-26T12:57:50;98560.81;;;13.61
74942;BMP280;63506;49.346;8.798;2024-02-26T13:00:36;98557.25;;;13.64
74942;BMP280;63506;49.346;8.798;2024-02-26T13:03:21;98549.63;;;13.95
74942;BMP280;63506;49.346;8.798;2024-02-26T13:06:08;98558.78;;;13.85
74942;BMP280;63506;49.346;8.798;2024-02-26T13:08:56;98556.94;;;13.98
74942;BMP280;63506;49.346;8.798;2024-02-26T13:11:45;98557.56;;;14.05
74942;BMP280;63506;49.346;8.798;2024-02-26T13:14:37;98562.75;;;13.80
74942;BMP280;63506;49.346;8.798;2024-02-26T13:17:22;98566.22;;;13.81
74942;BMP280;63506;49.346;8.798;2024-02-26T13:20:11;98566.88;;;13.88
74942;BMP280;63506;49.346;8.798;2024-02-26T13:23:02;98568.88;;;14.36
74942;BMP280;63506;49.346;8.798;2024-02-26T13:25:56;98569.84;;;14.62
74942;BMP280;63506;49.346;8.798;2024-02-26T13:28:42;98562.91;;;14.09
74942;BMP280;63506;49.346;8.798;2024-02-26T13:31:32;98567.75;;;14.18
74942;BMP280;63506;49.346;8.798;2024-02-26T13:34:25;98561.63;;;14.14
74942;BMP280;63506;49.346;8.798;2024-02-26T13:37:14;98565.31;;;14.23
74942;BMP280;63506;49.346;8.798;2024-02-26T13:40:05;98580.28;;;14.15
74942;BMP280;63506;49.346;8.798;2024-02-26T13:42:50;98580.16;;;14.02
74942;BMP280;63506;49.346;8.798;2024-02-26T13:45:35;98581.94;;;13.93
74942;BMP280;63506;49.346;8.798;2024-02-26T13:48:24;98580.94;;;14.19
74942;BMP280;63506;49.346;8.798;2024-02-26T13:51:09;98579.38;;;14.22
74942;BMP280;63506;49.346;8.798;2024-02-26T13:53:53;98575.50;;;14.35
74942;BMP280;63506;49.346;8.798;2024-02-26T13:56:39;98575.78;;;14.25
74942;BMP280;63506;49.346;8.798;2024-02-26T13:59:25;98577.13;;;14.17
74942;BMP280;63506;49.346;8.798;2024-02-26T14:02:09;98575.72;;;14.28
74942;BMP280;63506;49.346;8.798;2024-02-26T14:04:58;98577.22;;;14.29
74942;BMP280;63506;49.346;8.798;2024-02-26T14:07:47;98580.19;;;14.35
74942;BMP280;63506;49.346;8.798;2024-02-26T14:10:34;98574.25;;;14.24
74942;BMP280;63506;49.346;8.798;2024-02-26T14:13:19;98580.59;;;14.17
74942;BMP280;63506;49.346;8.798;2024-02-26T14:16:06;98589.28;;;14.12
74942;BMP280;63506;49.346;8.798;2024-02-26T14:18:57;98582.63;;;13.97
74942;BMP280;63506;49.346;8.798;2024-02-26T14:21:46;98584.00;;;14.05
74942;BMP280;63506;49.346;8.798;2024-02-26T14:24:33;98592.63;;;14.03
74942;BMP280;63506;49.346;8.798;2024-02-26T14:27:18;98595.84;;;14.15
74942;BMP280;63506;49.346;8.798;2024-02-26T14:30:04;98586.88;;;14.34
74942;BMP280;63506;49.346;8.798;2024-02-26T14:32:49;98585.84;;;14.44
74942;BMP280;63506;49.346;8.798;2024-02-26T14:35:33;98584.13;;;14.34
74942;BMP280;63506;49.346;8.798;2024-02-26T14:38:22;98586.25;;;14.26
74942;BMP280;63506;49.346;8.798;2024-02-26T14:41:09;98589.75;;;14.27
74942;BMP280;63506;49.346;8.798;2024-02-26T14:43:56;98589.22;;;14.32
74942;BMP280;63506;49.346;8.798;2024-02-26T14:46:45;98576.69;;;14.18
74942;BMP280;63506;49.346;8.798;2024-02-26T14:49:32;98577.16;;;14.33
74942;BMP280;63506;49.346;8.798;2024-02-26T14:52:16;98578.88;;;14.43
74942;BMP280;63506;49.346;8.798;2024-02-26T14:55:06;98586.75;;;14.37
74942;BMP280;63506;49.346;8.798;2024-02-26T14:57:52;98588.28;;;14.55
74942;BMP280;63506;49.346;8.798;2024-02-26T15:00:38;98594.53;;;14.39
74942;BMP280;63506;49.346;8.798;2024-02-26T15:03:24;98593.31;;;14.24
74942;BMP280;63506;49.346;8.798;2024-02-26T15:06:13;98588.97;;;14.26
74942;BMP280;63506;49.346;8.798;2024-02-26T15:09:00;98595.44;;;14.32
74942;BMP280;63506;49.346;8.798;2024-02-26T15:11:47;98586.81;;;14.18
74942;BMP280;63506;49.346;8.798;2024-02-26T15:14:33;98600.34;;;14.05
74942;BMP280;63506;49.346;8.798;2024-02-26T15:17:24;98598.47;;;14.18
74942;BMP280;63506;49.346;8.798;2024-02-26T15:20:12;98600.22;;;13.92
74942;BMP280;63506;49.346;8.798;2024-02-26T15:22:56;98598.34;;;13.89
74942;BMP280;63506;49.346;8.798;2024-02-26T15:25:41;98603.97;;;13.98
74942;BMP280;63506;49.346;8.798;2024-02-26T15:28:30;98610.47;;;13.85
74942;BMP280;63506;49.346;8.798;2024-02-26T15:31:15;98610.78;;;13.90
74942;BMP280;63506;49.346;8.798;2024-02-26T15:34:00;98608.88;;;13.87
74942;BMP280;63506;49.346;8.798;2024-02-26T15:36:49;98623.47;;;13.77
74942;BMP280;63506;49.346;8.798;2024-02-26T15:39:38;98629.75;;;13.74
74942;BMP280;63506;49.346;8.798;2024-02-26T15:42:25;98629.06;;;13.70
74942;BMP280;63506;49.346;8.798;2024-02-26T15:45:14;98630.31;;;13.65
74942;BMP280;63506;49.346;8.798;2024-02-26T15:48:01;98626.72;;;13.68
74942;BMP280;63506;49.346;8.798;2024-02-26T15:50:51;98645.44;;;13.66
74942;BMP280;63506;49.346;8.798;2024-02-26T15:53:35;98645.31;;;13.54
74942;BMP280;63506;49.346;8.798;2024-02-26T15:56:20;98649.56;;;13.31
74942;BMP280;63506;49.346;8.798;2024-02-26T15:59:07;98653.38;;;13.38
74942;BMP280;63506;49.346;8.798;2024-02-26T16:01:56;98651.41;;;13.38
74942;BMP280;63506;49.346;8.798;2024-02-26T16:04:43;98656.09;;;13.38
74942;BMP280;63506;49.346;8.798;2024-02-26T16:07:35;98657.31;;;13.33
74942;BMP280;63506;49.346;8.798;2024-02-26T16:10:20;98663.31;;;13.24